createdAt,value
2023-04-15T00:01:00.034Z,8.76
2023-04-15T00:03:27.345Z,8.69
2023-04-15T00:05:53.993Z,8.68
2023-04-15T00:08:20.632Z,8.65
2023-04-15T00:10:47.116Z,8.69
2023-04-15T00:13:13.709Z,8.73
2023-04-15T00:15:40.932Z,8.67
2023-04-15T00:18:08.059Z,8.59
2023-04-15T00:20:35.438Z,8.65
2023-04-15T00:23:03.850Z,8.62
2023-04-15T00:25:30.665Z,8.53
2023-04-15T00:27:57.087Z,8.58
2023-04-15T00:30:24.079Z,8.71
2023-04-15T00:32:50.677Z,8.60
2023-04-15T00:35:21.711Z,8.64
2023-04-15T00:37:49.847Z,8.59
2023-04-15T00:40:18.913Z,8.65
2023-04-15T00:42:45.689Z,8.57
2023-04-15T00:45:13.884Z,8.58
2023-04-15T00:47:42.819Z,8.59
2023-04-15T00:50:10.338Z,8.49
2023-04-15T00:52:37.884Z,8.58
2023-04-15T00:55:05.537Z,8.54
2023-04-15T00:57:32.308Z,8.58
2023-04-15T01:00:00.539Z,8.49
2023-04-15T01:02:27.404Z,8.34
2023-04-15T01:04:54.057Z,8.46
2023-04-15T01:07:20.647Z,8.47
2023-04-15T01:09:48.024Z,8.43
2023-04-15T01:12:16.313Z,8.52
2023-04-15T01:14:43.238Z,8.61
2023-04-15T01:17:09.725Z,8.61
2023-04-15T01:19:37.118Z,8.54
2023-04-15T01:22:03.859Z,8.49
2023-04-15T01:24:31.612Z,8.54
2023-04-15T01:26:58.580Z,8.64
2023-04-15T01:29:25.105Z,8.57
2023-04-15T01:31:52.948Z,8.47
2023-04-15T01:34:19.547Z,8.41
2023-04-15T01:36:46.437Z,8.51
2023-04-15T01:39:14.200Z,8.48
2023-04-15T01:41:42.300Z,8.42
2023-04-15T01:44:09.140Z,8.44
2023-04-15T01:46:36.519Z,8.42
2023-04-15T01:49:03.373Z,8.46
2023-04-15T01:51:32.078Z,8.47
2023-04-15T01:53:58.488Z,8.53
2023-04-15T01:56:25.478Z,8.48
2023-04-15T01:58:52.835Z,8.50
2023-04-15T02:01:20.024Z,8.55
2023-04-15T02:03:47.839Z,8.54
2023-04-15T02:06:15.766Z,8.47
2023-04-15T02:08:42.232Z,8.52
2023-04-15T02:11:09.281Z,8.45
2023-04-15T02:13:36.245Z,8.48
2023-04-15T02:16:03.618Z,8.41
2023-04-15T02:18:30.505Z,8.35
2023-04-15T02:20:58.771Z,8.39
2023-04-15T02:23:25.405Z,8.40
2023-04-15T02:25:53.503Z,8.26
2023-04-15T02:28:21.716Z,8.22
2023-04-15T02:30:52.565Z,8.22
2023-04-15T02:33:19.574Z,8.35
2023-04-15T02:35:46.472Z,8.26
2023-04-15T02:38:14.691Z,8.33
2023-04-15T02:40:41.497Z,8.37
2023-04-15T02:43:08.280Z,8.35
2023-04-15T02:45:37.252Z,8.39
2023-04-15T02:48:06.654Z,8.39
2023-04-15T02:50:33.596Z,8.52
2023-04-15T02:53:04.413Z,8.51
2023-04-15T02:55:31.282Z,8.46
2023-04-15T02:58:01.123Z,8.41
2023-04-15T03:00:28.258Z,8.43
2023-04-15T03:02:59.424Z,8.42
2023-04-15T03:05:26.408Z,8.45
2023-04-15T03:07:53.652Z,8.43
2023-04-15T03:10:21.170Z,8.49
2023-04-15T03:12:48.702Z,8.51
2023-04-15T03:15:20.336Z,8.46
2023-04-15T03:17:50.787Z,8.44
2023-04-15T03:20:17.317Z,8.29
2023-04-15T03:22:43.894Z,8.33
2023-04-15T03:25:11.360Z,8.37
2023-04-15T03:27:38.924Z,8.34
2023-04-15T03:30:06.635Z,8.37
2023-04-15T03:32:35.645Z,8.37
2023-04-15T03:35:02.265Z,8.36
2023-04-15T03:37:28.824Z,8.30
2023-04-15T03:39:55.543Z,8.27
2023-04-15T03:42:22.215Z,8.32
2023-04-15T03:44:48.748Z,8.35
2023-04-15T03:47:15.724Z,8.31
2023-04-15T03:49:42.171Z,8.39
2023-04-15T03:52:08.753Z,8.36
2023-04-15T03:54:35.205Z,8.33
2023-04-15T03:57:02.417Z,8.35
2023-04-15T03:59:28.989Z,8.37
2023-04-15T04:01:55.680Z,8.39
2023-04-15T04:04:22.437Z,8.41
2023-04-15T04:06:49.132Z,8.40
2023-04-15T04:09:15.530Z,8.43
2023-04-15T04:11:42.141Z,8.35
2023-04-15T04:14:08.960Z,8.42
2023-04-15T04:16:35.743Z,8.44
2023-04-15T04:19:02.427Z,8.36
2023-04-15T04:21:29.585Z,8.33
2023-04-15T04:23:56.697Z,8.29
2023-04-15T04:26:23.169Z,8.31
2023-04-15T04:28:49.782Z,8.31
2023-04-15T04:31:16.442Z,8.34
2023-04-15T04:33:42.875Z,8.31
2023-04-15T04:36:09.595Z,8.33
2023-04-15T04:38:35.991Z,8.38
2023-04-15T04:41:02.628Z,8.40
2023-04-15T04:43:29.068Z,8.44
2023-04-15T04:45:55.746Z,8.34
2023-04-15T04:48:22.876Z,8.35
2023-04-15T04:50:49.476Z,8.38
2023-04-15T04:53:16.204Z,8.39
2023-04-15T04:55:42.914Z,8.36
2023-04-15T04:58:09.328Z,8.39
2023-04-15T05:00:37.520Z,8.44
2023-04-15T05:03:04.524Z,8.45
2023-04-15T05:05:31.534Z,8.45
2023-04-15T05:07:57.930Z,8.47
2023-04-15T05:10:24.501Z,8.48
2023-04-15T05:12:51.881Z,8.50
2023-04-15T05:15:18.616Z,8.48
2023-04-15T05:17:45.545Z,8.39
2023-04-15T05:20:12.496Z,8.40
2023-04-15T05:22:39.186Z,8.43
2023-04-15T05:25:05.832Z,8.44
2023-04-15T05:27:32.381Z,8.49
2023-04-15T05:29:58.807Z,8.50
2023-04-15T05:32:25.759Z,8.52
2023-04-15T05:34:52.315Z,8.52
2023-04-15T05:37:21.094Z,8.49
2023-04-15T05:39:48.243Z,8.51
2023-04-15T05:42:14.839Z,8.50
2023-04-15T05:44:41.653Z,8.45
2023-04-15T05:47:08.669Z,8.53
2023-04-15T05:49:35.525Z,8.50
2023-04-15T05:52:02.410Z,8.53
2023-04-15T05:54:28.864Z,8.54
2023-04-15T05:56:56.493Z,8.58
2023-04-15T05:59:23.005Z,8.66
2023-04-15T06:01:49.978Z,8.71
2023-04-15T06:04:17.114Z,8.69
2023-04-15T06:06:43.889Z,8.71
2023-04-15T06:09:10.320Z,8.64
2023-04-15T06:11:37.154Z,8.64
2023-04-15T06:14:03.576Z,8.58
2023-04-15T06:16:30.156Z,8.61
2023-04-15T06:18:56.645Z,8.63
2023-04-15T06:21:23.235Z,8.63
2023-04-15T06:23:50.228Z,8.67
2023-04-15T06:26:16.876Z,8.69
2023-04-15T06:28:43.273Z,8.72
2023-04-15T06:31:09.905Z,8.74
2023-04-15T06:33:36.403Z,8.75
2023-04-15T06:36:02.851Z,8.78
2023-04-15T06:38:29.302Z,8.77
2023-04-15T06:40:56.131Z,8.68
2023-04-15T06:43:22.588Z,8.65
2023-04-15T06:45:49.267Z,8.66
2023-04-15T06:48:15.814Z,8.68
2023-04-15T06:50:42.514Z,8.68
2023-04-15T06:53:08.966Z,8.70
2023-04-15T06:55:35.667Z,8.76
2023-04-15T06:58:02.118Z,8.74
2023-04-15T07:00:28.795Z,8.75
2023-04-15T07:02:55.760Z,8.78
2023-04-15T07:05:22.533Z,8.85
2023-04-15T07:07:48.913Z,8.86
2023-04-15T07:10:15.821Z,8.82
2023-04-15T07:12:42.315Z,8.84
2023-04-15T07:15:09.058Z,8.83
2023-04-15T07:17:35.461Z,8.85
2023-04-15T07:20:02.582Z,8.82
2023-04-15T07:22:29.007Z,8.88
2023-04-15T07:24:55.682Z,8.89
2023-04-15T07:27:22.498Z,8.89
2023-04-15T07:29:49.030Z,8.97
2023-04-15T07:32:15.489Z,8.93
2023-04-15T07:34:42.153Z,8.98
2023-04-15T07:37:08.740Z,8.97
2023-04-15T07:39:35.204Z,8.99
2023-04-15T07:42:02.186Z,8.96
2023-04-15T07:44:28.740Z,8.99
2023-04-15T07:46:56.144Z,9.02
2023-04-15T07:49:22.862Z,8.97
2023-04-15T07:51:50.087Z,9.02
2023-04-15T07:54:16.755Z,9.07
2023-04-15T07:56:43.216Z,9.12
2023-04-15T07:59:10.059Z,9.16
2023-04-15T08:01:36.920Z,9.14
2023-04-15T08:04:03.829Z,9.20
2023-04-15T08:06:30.693Z,9.22
2023-04-15T08:08:57.392Z,9.20
2023-04-15T08:11:24.549Z,9.18
2023-04-15T08:13:52.438Z,9.26
2023-04-15T08:16:20.292Z,9.23
2023-04-15T08:18:47.684Z,9.21
2023-04-15T08:21:14.296Z,9.24
2023-04-15T08:23:40.998Z,9.27
2023-04-15T08:26:08.726Z,9.30
2023-04-15T08:28:36.126Z,9.31
2023-04-15T08:31:02.656Z,9.32
2023-04-15T08:33:29.216Z,9.31
2023-04-15T08:35:55.787Z,9.32
2023-04-15T08:38:22.673Z,9.36
2023-04-15T08:40:49.568Z,9.37
2023-04-15T08:43:28.256Z,9.39
2023-04-15T08:45:55.796Z,9.39
2023-04-15T08:48:24.456Z,9.40
2023-04-15T08:50:51.742Z,9.39
2023-04-15T08:53:18.245Z,9.52
2023-04-15T08:55:46.463Z,9.54
2023-04-15T08:58:14.144Z,9.54
2023-04-15T09:00:42.032Z,9.54
2023-04-15T09:03:09.341Z,9.58
2023-04-15T09:05:37.382Z,9.58
2023-04-15T09:08:05.304Z,9.64
2023-04-15T09:10:33.625Z,9.65
2023-04-15T09:13:02.070Z,9.65
2023-04-15T09:15:29.940Z,9.72
2023-04-15T09:17:56.918Z,9.69
2023-04-15T09:20:23.846Z,9.72
2023-04-15T09:22:51.080Z,9.69
2023-04-15T09:25:24.367Z,9.72
2023-04-15T09:27:53.652Z,9.72
2023-04-15T09:30:21.305Z,9.73
2023-04-15T09:32:53.064Z,9.78
2023-04-15T09:35:21.697Z,9.91
2023-04-15T09:37:49.274Z,9.91
2023-04-15T09:40:31.493Z,9.99
2023-04-15T09:42:58.040Z,9.98
2023-04-15T09:45:28.826Z,10.01
2023-04-15T09:47:59.169Z,10.10
2023-04-15T09:50:29.613Z,10.08
2023-04-15T09:52:56.362Z,10.18
2023-04-15T09:55:22.967Z,10.21
2023-04-15T09:57:49.507Z,10.31
2023-04-15T10:00:16.445Z,10.25
2023-04-15T10:02:43.638Z,10.35
2023-04-15T10:05:15.489Z,10.50
2023-04-15T10:07:42.716Z,10.57
2023-04-15T10:10:10.828Z,10.64
2023-04-15T10:12:38.197Z,10.75
2023-04-15T10:15:06.039Z,10.79
2023-04-15T10:17:35.218Z,10.92
2023-04-15T10:20:04.699Z,11.01
2023-04-15T10:22:32.568Z,11.35
2023-04-15T10:25:02.670Z,11.51
2023-04-15T10:27:29.307Z,11.64
2023-04-15T10:29:57.135Z,11.70
2023-04-15T10:32:26.322Z,11.65
2023-04-15T10:34:54.888Z,11.62
2023-04-15T10:37:23.144Z,11.69
2023-04-15T10:39:50.684Z,11.70
2023-04-15T10:42:19.309Z,11.77
2023-04-15T10:44:54.385Z,11.82
2023-04-15T10:47:22.037Z,11.77
2023-04-15T10:49:50.294Z,11.70
2023-04-15T10:52:24.800Z,11.85
2023-04-15T10:55:03.181Z,11.97
2023-04-15T10:57:36.054Z,12.21
2023-04-15T11:00:11.575Z,12.56
2023-04-15T11:02:41.031Z,12.74
2023-04-15T11:05:08.150Z,12.76
2023-04-15T11:07:38.963Z,12.97
2023-04-15T11:10:17.541Z,12.87
2023-04-15T11:12:45.597Z,13.09
2023-04-15T11:15:33.545Z,13.33
2023-04-15T11:18:14.972Z,13.67
2023-04-15T11:20:44.886Z,13.69
2023-04-15T11:23:15.095Z,13.61
2023-04-15T11:25:43.289Z,13.25
2023-04-15T11:28:11.371Z,13.18
2023-04-15T11:30:38.991Z,13.37
2023-04-15T11:33:10.455Z,13.36
2023-04-15T11:35:37.042Z,13.52
2023-04-15T11:38:04.446Z,13.50
2023-04-15T11:40:33.333Z,13.40
2023-04-15T11:43:07.189Z,13.47
2023-04-15T11:45:34.392Z,13.57
2023-04-15T11:48:09.604Z,13.69
2023-04-15T11:50:36.774Z,13.71
2023-04-15T11:53:07.637Z,13.66
2023-04-15T11:55:46.957Z,13.57
2023-04-15T11:58:17.987Z,13.53
2023-04-15T12:00:55.261Z,13.65
2023-04-15T12:03:27.605Z,13.73
2023-04-15T12:06:12.263Z,13.66
2023-04-15T12:09:00.445Z,13.81
2023-04-15T12:11:26.862Z,13.84
2023-04-15T12:13:58.661Z,13.94
2023-04-15T12:16:25.972Z,13.90
2023-04-15T12:18:57.603Z,13.96
2023-04-15T12:21:26.184Z,14.01
2023-04-15T12:23:54.750Z,14.16
2023-04-15T12:26:38.175Z,14.21
2023-04-15T12:29:10.274Z,13.95
2023-04-15T12:31:37.379Z,13.91
2023-04-15T12:34:08.076Z,14.09
2023-04-15T12:36:37.161Z,13.97
2023-04-15T12:39:06.744Z,13.80
2023-04-15T12:41:33.632Z,13.78
2023-04-15T12:44:00.305Z,13.73
2023-04-15T12:46:27.233Z,13.72
2023-04-15T12:48:54.020Z,13.64
2023-04-15T12:51:23.520Z,13.73
2023-04-15T12:53:50.802Z,13.75
2023-04-15T12:56:17.217Z,13.75
2023-04-15T12:58:43.954Z,13.78
2023-04-15T13:01:11.204Z,13.67
2023-04-15T13:03:37.947Z,13.72
2023-04-15T13:06:05.128Z,13.72
2023-04-15T13:08:32.509Z,13.82
2023-04-15T13:10:59.037Z,13.88
2023-04-15T13:13:25.713Z,13.90
2023-04-15T13:15:52.219Z,13.81
2023-04-15T13:18:18.750Z,13.93
2023-04-15T13:20:45.532Z,13.99
2023-04-15T13:23:12.289Z,14.14
2023-04-15T13:25:38.785Z,14.27
2023-04-15T13:28:05.385Z,14.30
2023-04-15T13:30:32.433Z,14.30
2023-04-15T13:32:58.867Z,14.21
2023-04-15T13:35:25.436Z,14.18
2023-04-15T13:37:53.593Z,14.14
2023-04-15T13:40:20.378Z,14.27
2023-04-15T13:42:47.053Z,14.38
2023-04-15T13:45:13.491Z,14.49
2023-04-15T13:47:40.541Z,14.54
2023-04-15T13:50:07.438Z,14.53
2023-04-15T13:52:34.052Z,14.58
2023-04-15T13:55:17.987Z,14.63
2023-04-15T13:57:46.521Z,14.61
2023-04-15T14:00:13.952Z,14.65
2023-04-15T14:02:41.736Z,15.01
2023-04-15T14:05:09.419Z,15.94
2023-04-15T14:07:36.518Z,16.31
2023-04-15T14:10:03.285Z,16.96
2023-04-15T14:12:29.755Z,17.31
2023-04-15T14:14:56.392Z,17.50
2023-04-15T14:17:23.065Z,17.43
2023-04-15T14:19:49.593Z,17.30
2023-04-15T14:22:16.261Z,17.54
2023-04-15T14:24:43.037Z,17.19
2023-04-15T14:27:11.148Z,17.24
2023-04-15T14:29:37.705Z,17.29
2023-04-15T14:32:11.696Z,16.96
2023-04-15T14:34:39.645Z,16.76
2023-04-15T14:37:06.228Z,16.85
2023-04-15T14:39:32.761Z,16.48
2023-04-15T14:41:59.182Z,16.08
2023-04-15T14:44:25.800Z,15.96
2023-04-15T14:46:52.300Z,15.85
2023-04-15T14:49:18.936Z,15.59
2023-04-15T14:51:46.235Z,15.57
2023-04-15T14:54:12.852Z,15.50
2023-04-15T14:56:39.325Z,15.39
2023-04-15T14:59:06.047Z,15.42
2023-04-15T15:01:33.965Z,15.30
2023-04-15T15:04:00.889Z,15.04
2023-04-15T15:06:27.776Z,15.00
2023-04-15T15:08:54.397Z,15.01
2023-04-15T15:11:20.993Z,15.08
2023-04-15T15:13:47.605Z,14.89
2023-04-15T15:16:14.728Z,14.70
2023-04-15T15:18:41.382Z,14.63
2023-04-15T15:21:07.857Z,14.74
2023-04-15T15:23:34.770Z,14.73
2023-04-15T15:26:01.376Z,14.66
2023-04-15T15:28:27.895Z,14.58
2023-04-15T15:30:54.573Z,14.57
2023-04-15T15:33:21.191Z,14.50
2023-04-15T15:35:47.929Z,14.58
2023-04-15T15:38:14.986Z,14.55
2023-04-15T15:40:41.445Z,14.47
2023-04-15T15:43:08.002Z,14.53
2023-04-15T15:45:35.509Z,14.42
2023-04-15T15:48:02.750Z,14.27
2023-04-15T15:50:29.324Z,14.21
2023-04-15T15:52:56.075Z,14.24
2023-04-15T15:55:23.287Z,14.16
2023-04-15T15:57:50.137Z,14.01
2023-04-15T16:00:17.092Z,14.11
2023-04-15T16:05:13.310Z,14.18
2023-04-15T16:07:40.103Z,14.10
2023-04-15T16:10:07.330Z,13.93
2023-04-15T16:12:35.058Z,13.91
2023-04-15T16:15:01.798Z,13.93
2023-04-15T16:17:28.525Z,13.92
2023-04-15T16:19:55.641Z,13.94
2023-04-15T16:22:27.091Z,13.88
2023-04-15T16:24:53.651Z,13.86
2023-04-15T16:27:20.064Z,13.76
2023-04-15T16:29:46.711Z,13.68
2023-04-15T16:32:13.276Z,13.42
2023-04-15T16:34:41.254Z,13.41
2023-04-15T16:37:07.737Z,13.37
2023-04-15T16:39:34.239Z,13.37
2023-04-15T16:42:02.174Z,13.36
2023-04-15T16:44:29.094Z,13.32
2023-04-15T16:46:56.264Z,13.28
2023-04-15T16:49:22.912Z,13.25
2023-04-15T16:51:49.329Z,13.29
2023-04-15T16:54:15.980Z,13.14
2023-04-15T16:56:42.374Z,13.03
2023-04-15T16:59:08.958Z,12.92
2023-04-15T17:01:35.574Z,12.97
2023-04-15T17:04:02.407Z,12.97
2023-04-15T17:06:28.898Z,12.92
2023-04-15T17:08:55.466Z,12.99
2023-04-15T17:11:21.851Z,12.95
2023-04-15T17:13:49.015Z,12.91
2023-04-15T17:16:15.548Z,12.92
2023-04-15T17:18:42.382Z,12.90
2023-04-15T17:21:08.780Z,12.85
2023-04-15T17:23:35.373Z,12.82
2023-04-15T17:26:01.987Z,12.74
2023-04-15T17:28:28.594Z,12.65
2023-04-15T17:30:55.226Z,12.63
2023-04-15T17:33:56.175Z,12.51
2023-04-15T17:36:08.752Z,12.48
2023-04-15T17:38:35.261Z,12.52
2023-04-15T17:41:01.659Z,12.45
2023-04-15T17:43:28.137Z,12.36
2023-04-15T17:45:54.521Z,12.32
2023-04-15T17:48:21.078Z,12.28
2023-04-15T17:50:47.792Z,12.25
2023-04-15T17:53:16.148Z,12.25
2023-04-15T17:55:42.715Z,12.30
2023-04-15T17:58:09.318Z,12.27
2023-04-15T18:00:35.842Z,12.14
2023-04-15T18:03:02.461Z,12.11
2023-04-15T18:05:30.150Z,12.12
2023-04-15T18:07:56.677Z,12.16
2023-04-15T18:10:23.959Z,12.10
2023-04-15T18:12:50.579Z,12.14
2023-04-15T18:15:17.327Z,12.08
2023-04-15T18:17:43.951Z,12.06
2023-04-15T18:20:11.010Z,12.04
2023-04-15T18:22:37.639Z,11.97
2023-04-15T18:25:04.680Z,11.92
2023-04-15T18:27:35.444Z,11.97
2023-04-15T18:30:01.888Z,11.88
2023-04-15T18:32:31.860Z,11.83
2023-04-15T18:34:58.524Z,11.83
2023-04-15T18:37:26.791Z,11.77
2023-04-15T18:39:54.075Z,11.79
2023-04-15T18:42:20.956Z,11.66
2023-04-15T18:44:47.368Z,11.70
2023-04-15T18:47:14.915Z,11.77
2023-04-15T18:49:41.662Z,11.75
2023-04-15T18:52:09.905Z,11.70
2023-04-15T18:54:37.250Z,11.69
2023-04-15T18:57:04.118Z,11.61
2023-04-15T18:59:31.349Z,11.62
2023-04-15T19:02:00.132Z,11.48
2023-04-15T19:04:28.802Z,11.54
2023-04-15T19:06:56.017Z,11.50
2023-04-15T19:09:22.569Z,11.45
2023-04-15T19:11:49.071Z,11.54
2023-04-15T19:14:17.479Z,11.41
2023-04-15T19:16:44.023Z,11.48
2023-04-15T19:19:10.583Z,11.49
2023-04-15T19:21:37.045Z,11.43
2023-04-15T19:24:03.614Z,11.38
2023-04-15T19:26:30.110Z,11.43
2023-04-15T19:28:58.747Z,11.38
2023-04-15T19:31:26.148Z,11.23
2023-04-15T19:33:52.761Z,11.09
2023-04-15T19:36:19.236Z,11.06
2023-04-15T19:38:45.642Z,11.08
2023-04-15T19:41:12.150Z,11.12
2023-04-15T19:43:38.582Z,11.10
2023-04-15T19:46:06.226Z,11.03
2023-04-15T19:48:32.707Z,10.99
2023-04-15T19:50:59.810Z,11.00
2023-04-15T19:53:26.321Z,10.96
2023-04-15T19:55:52.912Z,10.95
2023-04-15T19:58:19.407Z,10.95
2023-04-15T20:00:46.050Z,10.91
2023-04-15T20:03:12.700Z,10.93
2023-04-15T20:05:39.413Z,10.94
2023-04-15T20:08:05.882Z,10.91
2023-04-15T20:10:32.604Z,10.86
2023-04-15T20:12:59.023Z,10.85
2023-04-15T20:15:26.099Z,10.77
2023-04-15T20:17:52.532Z,10.80
2023-04-15T20:20:19.363Z,10.91
2023-04-15T20:22:45.971Z,10.92
2023-04-15T20:25:12.751Z,10.89
2023-04-15T20:27:39.421Z,10.77
2023-04-15T20:30:07.330Z,10.68
2023-04-15T20:32:36.614Z,10.62
2023-04-15T20:35:05.090Z,10.67
2023-04-15T20:37:33.217Z,10.61
2023-04-15T20:40:01.238Z,10.55
2023-04-15T20:42:27.989Z,10.60
2023-04-15T20:44:54.515Z,10.58
2023-04-15T20:47:21.076Z,10.56
2023-04-15T20:49:47.930Z,10.55
2023-04-15T20:52:14.384Z,10.60
2023-04-15T20:54:41.036Z,10.58
2023-04-15T20:57:07.474Z,10.51
2023-04-15T20:59:34.692Z,10.48
2023-04-15T21:02:01.900Z,10.33
2023-04-15T21:04:28.387Z,10.32
2023-04-15T21:06:54.999Z,10.26
2023-04-15T21:09:21.412Z,10.28
2023-04-15T21:14:18.767Z,10.27
2023-04-15T21:16:45.680Z,10.17
2023-04-15T21:19:12.181Z,10.13
2023-04-15T21:21:38.667Z,10.15
2023-04-15T21:24:07.546Z,10.09
2023-04-15T21:26:34.211Z,10.10
2023-04-15T21:29:00.666Z,10.08
2023-04-15T21:31:27.120Z,10.00
2023-04-15T21:33:53.574Z,10.02
2023-04-15T21:36:20.252Z,10.04
2023-04-15T21:38:46.726Z,10.01
2023-04-15T21:41:13.362Z,10.06
2023-04-15T21:43:39.830Z,10.00
2023-04-15T21:46:22.470Z,9.94
2023-04-15T21:48:52.762Z,9.85
2023-04-15T21:51:19.289Z,9.86
2023-04-15T21:53:45.755Z,9.84
2023-04-15T21:56:12.367Z,9.82
2023-04-15T21:58:38.830Z,9.79
2023-04-15T22:01:05.847Z,9.77
2023-04-15T22:03:34.071Z,9.82
2023-04-15T22:06:04.640Z,9.82
2023-04-15T22:08:41.171Z,9.66
2023-04-15T22:11:28.672Z,9.68
2023-04-15T22:13:58.750Z,9.73
2023-04-15T22:16:26.740Z,9.61
2023-04-15T22:18:54.250Z,9.56
2023-04-15T22:21:20.746Z,9.58
2023-04-15T22:23:47.879Z,9.49
2023-04-15T22:26:14.525Z,9.56
2023-04-15T22:28:41.628Z,9.48
2023-04-15T22:31:08.177Z,9.50
2023-04-15T22:33:34.603Z,9.42
2023-04-15T22:36:01.264Z,9.44
2023-04-15T22:38:27.736Z,9.42
2023-04-15T22:40:54.226Z,9.44
2023-04-15T22:43:20.707Z,9.47
2023-04-15T22:45:51.277Z,9.40
2023-04-15T22:48:18.737Z,9.48
2023-04-15T22:50:45.703Z,9.45
2023-04-15T22:53:12.757Z,9.38
2023-04-15T22:55:39.487Z,9.33
2023-04-15T22:58:06.189Z,9.41
2023-04-15T23:00:32.750Z,9.36
2023-04-15T23:02:59.328Z,9.39
2023-04-15T23:05:26.175Z,9.33
2023-04-15T23:07:52.821Z,9.31
2023-04-15T23:10:19.256Z,9.30
2023-04-15T23:12:45.749Z,9.31
2023-04-15T23:15:12.538Z,9.23
2023-04-15T23:17:39.023Z,9.30
2023-04-15T23:20:06.519Z,9.28
2023-04-15T23:22:32.955Z,9.20
2023-04-15T23:24:59.661Z,9.24
2023-04-15T23:27:26.468Z,9.28
2023-04-15T23:29:52.924Z,9.29
2023-04-15T23:32:19.379Z,9.17
2023-04-15T23:34:46.264Z,9.18
2023-04-15T23:37:12.687Z,9.17
2023-04-15T23:39:39.308Z,9.11
2023-04-15T23:42:05.709Z,9.06
2023-04-15T23:44:32.320Z,9.05
2023-04-15T23:46:58.765Z,9.08
2023-04-15T23:49:25.661Z,9.08
2023-04-15T23:51:52.078Z,9.04
2023-04-15T23:54:18.620Z,9.14
2023-04-15T23:56:46.043Z,9.14
2023-04-15T23:59:12.629Z,9.09
